Time;durP1;ratioP1;P1;durP2;ratioP2;P2;SDS_P1;SDS_P2;PMS_P1;PMS_P2;Temp;Humidity;BMP_temperature;BMP_pressure;BME280_temperature;BME280_humidity;BME280_pressure;Samples;Min_cycle;Max_cycle;Signal;HPM_P1;HPM_P2
2021/05/28 00:02:23;;;;;;;5.70;3.67;;;;;;;16.59;96.54;98512.97;5043638;28;20228;-67
2021/05/28 00:04:50;;;;;;;7.13;3.73;;;;;;;17.68;90.82;98515.09;5047164;28;20209;-67
2021/05/28 00:07:17;;;;;;;4.77;3.83;;;;;;;17.78;89.43;98522.63;5046727;28;20207;-67
2021/05/28 00:09:43;;;;;;;8.50;4.53;;;;;;;16.98;98.06;98518.66;5049959;28;20658;-67
2021/05/28 00:12:11;;;;;;;8.17;5.50;;;;;;;17.17;96.67;98525.63;5052604;28;20575;-67
2021/05/28 00:14:38;;;;;;;6.53;5.20;;;;;;;17.14;100.00;98522.59;5043646;28;20207;-67
2021/05/28 00:17:05;;;;;;;7.70;5.50;;;;;;;16.30;100.00;98524.47;5045468;28;20218;-67
2021/05/28 00:19:32;;;;;;;7.70;5.70;;;;;;;16.71;100.00;98527.34;5048277;28;20209;-66
2021/05/28 00:21:59;;;;;;;7.53;5.77;;;;;;;17.11;99.45;98525.72;5039905;28;20652;-66
2021/05/28 00:24:26;;;;;;;8.03;6.33;;;;;;;16.49;100.00;98527.00;5047615;28;20210;-66
2021/05/28 00:26:53;;;;;;;7.90;5.90;;;;;;;17.69;96.00;98526.72;5045231;28;20200;-66
2021/05/28 00:29:19;;;;;;;9.17;6.20;;;;;;;17.02;99.23;98527.94;5048651;28;20205;-66
2021/05/28 00:31:46;;;;;;;7.10;5.30;;;;;;;17.72;93.85;98531.66;5048342;28;20276;-66
2021/05/28 00:34:13;;;;;;;9.43;6.87;;;;;;;17.43;94.47;98535.25;5045746;28;20209;-66
2021/05/28 00:36:41;;;;;;;7.30;5.63;;;;;;;17.74;91.49;98530.34;5047385;28;20202;-67
2021/05/28 00:39:08;;;;;;;6.60;5.07;;;;;;;18.08;88.83;98532.25;5044868;28;20210;-67
2021/05/28 00:41:35;;;;;;;8.17;5.63;;;;;;;18.05;89.95;98542.72;5050175;28;20231;-66
2021/05/28 00:44:02;;;;;;;9.27;5.40;;;;;;;18.15;88.65;98537.53;5047523;28;20208;-66
2021/05/28 00:46:29;;;;;;;7.93;5.43;;;;;;;17.15;95.18;98538.56;5049609;28;20260;-66
2021/05/28 00:48:56;;;;;;;9.53;5.07;;;;;;;17.52;90.48;98541.97;5048299;28;20211;-66
2021/05/28 00:51:23;;;;;;;6.07;4.83;;;;;;;17.51;91.85;98529.50;5050776;28;20286;-66
2021/05/28 00:53:52;;;;;;;6.73;4.87;;;;;;;17.25;95.41;98527.19;5043081;28;20210;-66
2021/05/28 00:56:19;;;;;;;7.83;5.47;;;;;;;17.91;89.37;98528.63;5048857;28;20224;-66
2021/05/28 00:58:47;;;;;;;6.37;4.63;;;;;;;17.46;90.08;98540.19;5048029;28;20215;-66
2021/05/28 01:01:14;;;;;;;11.27;5.57;;;;;;;17.89;88.37;98538.03;5049125;28;20249;-66
2021/05/28 01:03:41;;;;;;;7.13;3.93;;;;;;;17.83;83.14;98541.66;5043548;28;20293;-66
2021/05/28 01:06:08;;;;;;;6.03;3.87;;;;;;;17.88;84.28;98537.19;5043575;28;20202;-66
2021/05/28 01:08:34;;;;;;;5.17;3.97;;;;;;;17.98;84.10;98539.31;5045181;28;20207;-66
2021/05/28 01:11:02;;;;;;;8.03;4.07;;;;;;;18.19;84.28;98533.31;5044654;28;20201;-67
2021/05/28 01:13:29;;;;;;;6.90;4.70;;;;;;;17.30;92.14;98524.63;5049043;28;20221;-67
2021/05/28 01:15:56;;;;;;;5.77;4.40;;;;;;;18.12;85.56;98536.13;5043757;28;20213;-67
2021/05/28 01:18:22;;;;;;;7.70;4.63;;;;;;;18.01;86.67;98536.97;5050002;28;20262;-66
2021/05/28 01:20:49;;;;;;;6.77;4.27;;;;;;;18.10;85.22;98532.84;5039805;28;20201;-66
2021/05/28 01:23:17;;;;;;;6.07;3.87;;;;;;;17.36;90.03;98538.03;5043516;28;20205;-66
2021/05/28 01:25:44;;;;;;;5.80;4.30;;;;;;;17.77;84.54;98539.88;5038862;28;20208;-66
2021/05/28 01:28:11;;;;;;;5.57;3.53;;;;;;;18.01;82.29;98541.53;5047354;28;20209;-66
2021/05/28 01:30:38;;;;;;;7.63;3.70;;;;;;;17.81;82.50;98543.75;5045023;28;20202;-66
2021/05/28 01:33:05;;;;;;;4.60;3.30;;;;;;;17.79;81.53;98549.38;5045750;28;20240;-66
2021/05/28 01:35:32;;;;;;;7.13;4.07;;;;;;;17.96;82.61;98544.13;5041706;28;20207;-66
2021/05/28 01:37:59;;;;;;;6.63;3.50;;;;;;;17.33;86.67;98543.88;5049324;28;20296;-67
2021/05/28 01:40:27;;;;;;;8.17;3.67;;;;;;;17.66;85.39;98543.38;5045212;28;20264;-67
2021/05/28 01:42:54;;;;;;;5.73;3.80;;;;;;;17.68;84.15;98546.69;5048715;28;20225;-67
2021/05/28 01:45:21;;;;;;;8.50;3.67;;;;;;;17.48;85.78;98538.88;5040965;28;20239;-67
2021/05/28 01:47:48;;;;;;;5.40;3.50;;;;;;;18.11;79.80;98541.75;5053129;28;20210;-66
2021/05/28 01:50:15;;;;;;;4.80;3.33;;;;;;;17.99;78.77;98541.75;5050732;28;20228;-67
2021/05/28 01:52:42;;;;;;;5.00;3.10;;;;;;;18.22;75.99;98544.47;5044424;28;20225;-67
2021/05/28 01:55:11;;;;;;;4.93;2.80;;;;;;;18.40;74.81;98540.84;5052666;28;20212;-67
2021/05/28 01:57:39;;;;;;;6.87;3.10;;;;;;;18.35;75.27;98546.13;5052687;28;20296;-67
2021/05/28 02:00:08;;;;;;;3.67;2.80;;;;;;;18.23;78.51;98537.19;5040169;28;20213;-67
2021/05/28 02:02:36;;;;;;;4.30;2.67;;;;;;;18.33;76.73;98545.53;5060918;28;20221;-67
2021/05/28 02:05:04;;;;;;;5.47;3.23;;;;;;;18.12;77.91;98535.28;5049363;28;20207;-67
2021/05/28 02:07:31;;;;;;;4.13;2.90;;;;;;;18.08;77.26;98534.16;5052617;28;20255;-67
2021/05/28 02:09:58;;;;;;;3.63;2.40;;;;;;;18.31;76.48;98539.53;5049067;28;20675;-67
2021/05/28 02:12:25;;;;;;;4.03;2.60;;;;;;;18.40;75.66;98544.34;5040447;28;20690;-67
2021/05/28 02:14:56;;;;;;;4.40;2.60;;;;;;;18.30;76.12;98544.09;5042217;28;20206;-66
2021/05/28 02:17:23;;;;;;;3.10;2.07;;;;;;;18.25;76.78;98540.47;5060311;28;20285;-67
2021/05/28 02:19:50;;;;;;;5.43;2.60;;;;;;;18.10;77.91;98535.56;5052002;28;20213;-66
2021/05/28 02:22:17;;;;;;;3.43;2.20;;;;;;;18.41;74.71;98539.78;5048118;28;20316;-67
2021/05/28 02:24:44;;;;;;;4.20;2.40;;;;;;;17.62;79.88;98539.50;5052138;28;20202;-67
2021/05/28 02:27:11;;;;;;;4.17;2.40;;;;;;;17.80;78.83;98542.13;5046703;28;20200;-67
2021/05/28 02:29:38;;;;;;;2.67;2.17;;;;;;;18.26;76.60;98545.66;5049748;28;20210;-67
2021/05/28 02:32:06;;;;;;;3.10;2.67;;;;;;;18.24;77.07;98542.34;5053164;28;20233;-67
2021/05/28 02:34:33;;;;;;;2.90;2.17;;;;;;;18.05;77.33;98537.31;5051685;28;20256;-68
2021/05/28 02:37:00;;;;;;;3.00;2.30;;;;;;;17.53;79.38;98543.59;5059124;28;20205;-67
2021/05/28 02:39:27;;;;;;;3.60;2.20;;;;;;;18.02;77.10;98540.47;5052413;28;20202;-67
2021/05/28 02:41:53;;;;;;;3.37;2.23;;;;;;;18.09;76.30;98543.88;5052343;28;20229;-68
2021/05/28 02:44:20;;;;;;;4.27;2.30;;;;;;;18.18;75.96;98542.47;5051596;28;20208;-67
2021/05/28 02:46:48;;;;;;;3.30;2.13;;;;;;;18.11;76.70;98541.75;5053190;28;20231;-67
2021/05/28 02:49:16;;;;;;;3.90;2.20;;;;;;;17.44;80.34;98540.44;5043632;28;20199;-67
2021/05/28 02:51:42;;;;;;;4.67;2.80;;;;;;;17.47;80.70;98545.34;5044495;28;20225;-67
2021/05/28 02:54:09;;;;;;;5.73;2.33;;;;;;;17.76;79.78;98543.63;5051622;28;20201;-67
2021/05/28 02:56:36;;;;;;;2.90;2.10;;;;;;;17.67;79.81;98542.31;5046778;28;20669;-68
2021/05/28 02:59:03;;;;;;;3.00;2.47;;;;;;;17.93;78.35;98545.41;5045392;28;20203;-67
2021/05/28 03:01:30;;;;;;;3.70;2.30;;;;;;;17.62;78.62;98547.59;5051146;28;20276;-68
2021/05/28 03:03:57;;;;;;;3.33;2.20;;;;;;;17.64;78.45;98549.00;5049853;28;20200;-68
2021/05/28 03:06:25;;;;;;;4.00;2.20;;;;;;;17.78;79.01;98550.44;5051458;28;20194;-68
2021/05/28 03:08:51;;;;;;;3.27;2.30;;;;;;;17.79;78.48;98546.69;5049305;28;20212;-68
2021/05/28 03:11:18;;;;;;;4.70;2.60;;;;;;;17.90;78.19;98545.06;5050336;28;20221;-68
2021/05/28 03:13:45;;;;;;;3.50;2.37;;;;;;;17.95;77.70;98540.59;5045780;28;20693;-68
2021/05/28 03:16:12;;;;;;;2.77;2.00;;;;;;;17.91;77.91;98550.22;5051595;28;20230;-68
2021/05/28 03:18:47;;;;;;;4.57;2.43;;;;;;;18.01;77.45;98550.47;5051090;28;20319;-68
2021/05/28 03:21:23;;;;;;;4.07;2.10;;;;;;;17.88;77.97;98550.69;5063122;28;20242;-67
2021/05/28 03:23:51;;;;;;;2.37;2.10;;;;;;;17.63;79.68;98543.88;5050141;28;20234;-68
2021/05/28 03:26:19;;;;;;;4.30;2.60;;;;;;;17.43;81.03;98540.66;5047187;28;20209;-67
2021/05/28 03:28:45;;;;;;;3.17;2.30;;;;;;;17.46;80.14;98542.88;5055597;28;20298;-68
2021/05/28 03:31:12;;;;;;;3.13;2.00;;;;;;;17.20;82.92;98540.53;5045371;28;20249;-67
2021/05/28 03:33:39;;;;;;;4.57;2.83;;;;;;;17.15;84.80;98541.25;5046995;28;20237;-68
2021/05/28 03:36:07;;;;;;;5.93;2.67;;;;;;;17.03;83.39;98542.25;5055936;28;20579;-68
2021/05/28 03:38:34;;;;;;;4.70;3.07;;;;;;;16.86;84.40;98549.31;5049738;28;20202;-68
2021/05/28 03:41:02;;;;;;;5.20;2.70;;;;;;;16.83;85.25;98544.38;5054908;28;20660;-68
2021/05/28 03:43:28;;;;;;;5.30;3.33;;;;;;;16.81;85.27;98546.50;5047292;28;20278;-67
2021/05/28 03:45:55;;;;;;;4.17;2.87;;;;;;;16.31;88.05;98545.00;5041060;28;20202;-68
2021/05/28 03:48:22;;;;;;;4.13;2.90;;;;;;;16.78;85.44;98550.47;5042615;28;20212;-68
2021/05/28 03:50:49;;;;;;;6.03;2.60;;;;;;;16.47;87.70;98550.63;5050249;28;20261;-68
2021/05/28 03:53:16;;;;;;;5.40;2.50;;;;;;;16.50;87.35;98552.03;5043200;28;20235;-67
2021/05/28 03:55:43;;;;;;;4.23;2.43;;;;;;;16.13;90.02;98555.75;5054656;28;20220;-67
2021/05/28 03:58:11;;;;;;;3.60;2.73;;;;;;;16.21;90.35;98548.19;5054938;28;20199;-68
2021/05/28 04:00:37;;;;;;;4.07;2.37;;;;;;;16.52;87.79;98553.47;5055153;28;20672;-68
2021/05/28 04:03:05;;;;;;;5.93;3.07;;;;;;;15.83;92.30;98552.09;5047025;28;20219;-68
2021/05/28 04:05:32;;;;;;;3.43;2.83;;;;;;;15.94;92.84;98552.19;5045587;28;20203;-67
2021/05/28 04:07:59;;;;;;;5.83;3.00;;;;;;;15.36;97.05;98544.63;5046434;28;20723;-67
2021/05/28 04:10:25;;;;;;;5.03;2.70;;;;;;;15.51;97.04;98537.06;5043344;28;20605;-68
2021/05/28 04:12:54;;;;;;;5.70;3.10;;;;;;;15.84;93.72;98540.28;5050277;28;20219;-68
2021/05/28 04:15:21;;;;;;;6.90;3.57;;;;;;;15.95;92.68;98537.69;5061781;28;20603;-68
2021/05/28 04:17:48;;;;;;;5.30;3.17;;;;;;;16.04;92.19;98549.84;5062471;28;20199;-68
2021/05/28 04:20:15;;;;;;;6.00;2.90;;;;;;;15.93;93.07;98539.78;5045868;28;20210;-67
2021/05/28 04:22:42;;;;;;;4.47;2.90;;;;;;;16.14;91.39;98542.06;5054086;28;20224;-68
2021/05/28 04:25:10;;;;;;;5.20;3.43;;;;;;;16.10;91.77;98540.03;5053817;28;20232;-67
2021/05/28 04:27:37;;;;;;;4.07;3.13;;;;;;;15.46;95.64;98524.25;5054211;28;20663;-67
2021/05/28 04:30:05;;;;;;;3.67;2.70;;;;;;;15.56;96.73;98534.53;5052988;28;20663;-67
2021/05/28 04:32:32;;;;;;;8.57;3.90;;;;;;;15.76;94.51;98541.38;5042244;28;20317;-67
2021/05/28 04:34:59;;;;;;;7.03;4.27;;;;;;;15.95;93.30;98547.66;5045661;28;20210;-67
2021/05/28 04:37:26;;;;;;;7.97;3.80;;;;;;;16.12;92.17;98549.53;5045548;28;20210;-67
2021/05/28 04:39:53;;;;;;;5.13;3.40;;;;;;;15.96;92.86;98547.41;5054150;28;20281;-68
2021/05/28 04:42:20;;;;;;;5.27;3.27;;;;;;;15.81;93.41;98551.50;5047672;28;20274;-68
2021/05/28 04:44:46;;;;;;;5.90;3.83;;;;;;;16.15;91.83;98549.09;5050867;28;20211;-68
2021/05/28 04:47:13;;;;;;;5.47;3.80;;;;;;;16.30;90.16;98556.78;5045772;28;20293;-68
2021/05/28 04:49:41;;;;;;;4.73;3.60;;;;;;;16.21;90.81;98558.16;5053491;28;20206;-67
2021/05/28 04:52:08;;;;;;;6.30;4.47;;;;;;;16.56;88.99;98561.94;5047429;28;20252;-68
2021/05/28 04:54:35;;;;;;;6.80;3.80;;;;;;;16.46;88.62;98567.03;5051664;28;20275;-67
2021/05/28 04:57:01;;;;;;;5.57;4.17;;;;;;;16.67;87.00;98562.00;5053576;28;20667;-68
2021/05/28 04:59:28;;;;;;;5.60;4.13;;;;;;;16.97;85.05;98567.44;5053320;28;20206;-68
2021/05/28 05:01:55;;;;;;;7.53;4.40;;;;;;;17.20;83.86;98564.81;5041102;28;20694;-68
2021/05/28 05:04:23;;;;;;;8.70;4.20;;;;;;;17.17;83.07;98574.19;5053003;28;20804;-68
2021/05/28 05:06:50;;;;;;;7.30;4.40;;;;;;;17.24;83.71;98577.66;5044494;28;20289;-73
2021/05/28 05:09:17;;;;;;;5.03;3.80;;;;;;;17.19;82.76;98582.91;5047676;28;20209;-71
2021/05/28 05:11:44;;;;;;;6.35;4.53;;;;;;;17.53;80.63;98576.00;5051295;28;20819;-68
2021/05/28 05:14:11;;;;;;;7.77;4.73;;;;;;;17.88;77.50;98590.38;5048674;28;20266;-72
2021/05/28 05:16:37;;;;;;;9.80;4.43;;;;;;;17.07;81.60;98587.41;5044895;28;20209;-70
2021/05/28 05:19:04;;;;;;;6.80;4.23;;;;;;;16.60;85.40;98577.44;5047014;28;20227;-70
2021/05/28 05:21:31;;;;;;;9.37;5.17;;;;;;;17.43;81.52;98586.53;5049205;28;20237;-68
2021/05/28 05:23:59;;;;;;;7.40;4.23;;;;;;;17.71;80.27;98584.00;5044628;28;20201;-69
2021/05/28 05:26:26;;;;;;;10.57;5.37;;;;;;;17.80;77.49;98593.41;5048342;28;20288;-68
2021/05/28 05:28:52;;;;;;;7.40;4.90;;;;;;;18.18;75.32;98591.13;5045670;28;20205;-69
2021/05/28 05:31:19;;;;;;;11.83;5.30;;;;;;;17.71;77.52;98595.63;5056282;28;20224;-68
2021/05/28 05:33:46;;;;;;;10.10;5.40;;;;;;;18.05;75.90;98592.16;5048870;28;20238;-68
2021/05/28 05:36:13;;;;;;;8.77;4.97;;;;;;;17.96;75.81;98593.56;5043697;28;20200;-67
2021/05/28 05:38:40;;;;;;;8.90;5.13;;;;;;;17.93;75.93;98595.91;5037695;28;20206;-67
2021/05/28 05:41:07;;;;;;;12.77;5.07;;;;;;;18.10;74.84;98597.69;5044935;28;20591;-68
2021/05/28 05:43:34;;;;;;;9.93;4.77;;;;;;;17.87;75.77;98592.25;5044336;28;20209;-67
2021/05/28 05:46:02;;;;;;;9.53;4.17;;;;;;;17.61;79.24;98595.38;5039329;28;20213;-67
2021/05/28 05:48:29;;;;;;;7.40;5.10;;;;;;;17.80;78.34;98585.31;5043445;28;20276;-67
2021/05/28 05:50:56;;;;;;;7.93;4.30;;;;;;;18.33;73.66;98594.16;5039251;28;20202;-67
2021/05/28 05:53:23;;;;;;;14.30;5.23;;;;;;;18.00;78.10;98599.31;5041924;28;20281;-67
2021/05/28 05:55:50;;;;;;;18.57;6.43;;;;;;;17.77;77.67;98604.66;5039865;28;20210;-67
2021/05/28 05:58:18;;;;;;;12.13;5.03;;;;;;;18.35;74.71;98603.69;5046452;28;20218;-68
2021/05/28 06:00:44;;;;;;;12.57;5.30;;;;;;;17.87;76.19;98615.72;5045200;28;20215;-67
2021/05/28 06:03:12;;;;;;;8.67;4.70;;;;;;;18.25;73.52;98613.41;5045141;28;20225;-68
2021/05/28 06:05:39;;;;;;;8.30;5.13;;;;;;;18.76;71.83;98624.34;5046979;28;20306;-69
2021/05/28 06:08:06;;;;;;;8.70;4.80;;;;;;;18.61;72.71;98624.00;5043808;28;20207;-68
2021/05/28 06:10:33;;;;;;;8.80;5.03;;;;;;;17.92;75.60;98615.84;5048467;28;20234;-68
2021/05/28 06:13:03;;;;;;;7.70;4.47;;;;;;;17.44;78.47;98618.69;5038319;28;20322;-68
2021/05/28 06:15:31;;;;;;;8.23;5.10;;;;;;;17.57;80.39;98615.78;5036960;28;20655;-66
2021/05/28 06:17:58;;;;;;;10.13;5.60;;;;;;;17.83;77.40;98617.25;5035193;28;20211;-68
2021/05/28 06:20:25;;;;;;;9.10;5.27;;;;;;;17.67;76.58;98634.94;5040399;28;20259;-66
2021/05/28 06:22:51;;;;;;;9.77;5.03;;;;;;;17.20;80.62;98624.16;5044539;28;20210;-66
2021/05/28 06:25:18;;;;;;;8.63;4.73;;;;;;;17.45;81.92;98612.22;5046001;28;20215;-68
2021/05/28 06:27:45;;;;;;;9.97;5.60;;;;;;;19.01;73.61;98623.00;5048119;28;20211;-68
2021/05/28 06:30:13;;;;;;;10.20;5.27;;;;;;;18.36;75.41;98623.44;5042754;28;20563;-66
2021/05/28 06:32:41;;;;;;;10.30;4.93;;;;;;;19.01;72.17;98619.47;5047855;28;20226;-68
2021/05/28 06:35:08;;;;;;;9.40;4.93;;;;;;;19.05;67.99;98634.16;5047669;28;20294;-68
2021/05/28 06:37:35;;;;;;;11.03;5.33;;;;;;;19.27;66.96;98635.19;5048049;28;20216;-66
2021/05/28 06:40:03;;;;;;;8.53;4.57;;;;;;;19.38;67.20;98635.16;5050785;28;20208;-68
2021/05/28 06:42:30;;;;;;;7.57;4.90;;;;;;;20.31;62.97;98635.47;5049601;28;20225;-68
2021/05/28 06:44:56;;;;;;;7.00;5.17;;;;;;;18.90;69.56;98637.38;5047850;28;20216;-68
2021/05/28 06:47:25;;;;;;;7.07;5.17;;;;;;;19.19;69.30;98636.34;5049325;28;20202;-68
2021/05/28 06:49:53;;;;;;;10.93;5.30;;;;;;;19.08;69.07;98641.78;5051318;28;20204;-68
2021/05/28 06:52:20;;;;;;;7.30;4.30;;;;;;;20.65;61.70;98654.16;5042316;28;20251;-68
2021/05/28 06:54:47;;;;;;;8.47;5.13;;;;;;;18.54;70.53;98631.44;5040616;28;20774;-68
2021/05/28 06:57:14;;;;;;;9.40;5.13;;;;;;;18.90;69.86;98640.06;5039656;28;20649;-67
2021/05/28 06:59:41;;;;;;;8.40;4.97;;;;;;;18.83;71.66;98638.56;5040918;28;20205;-68
2021/05/28 07:02:08;;;;;;;10.73;5.57;;;;;;;20.00;64.73;98647.66;5045005;28;20280;-67
2021/05/28 07:04:35;;;;;;;8.37;5.10;;;;;;;18.89;69.86;98637.63;5050775;28;20197;-68
2021/05/28 07:07:03;;;;;;;8.30;5.10;;;;;;;19.68;65.79;98645.72;5036848;28;20342;-68
2021/05/28 07:09:29;;;;;;;7.90;5.00;;;;;;;19.48;66.03;98648.03;5039503;28;20295;-68
2021/05/28 07:11:56;;;;;;;8.33;5.10;;;;;;;20.56;62.81;98654.78;5046392;28;20293;-68
2021/05/28 07:14:23;;;;;;;9.60;4.73;;;;;;;20.45;62.26;98664.69;5041440;28;20280;-68
2021/05/28 07:16:50;;;;;;;8.37;4.90;;;;;;;21.32;56.63;98679.22;5038044;28;20206;-68
2021/05/28 07:19:17;;;;;;;7.57;5.07;;;;;;;21.28;56.15;98680.81;5038861;28;20206;-69
2021/05/28 07:21:43;;;;;;;6.20;4.40;;;;;;;20.33;59.40;98673.97;5041788;28;20226;-69
2021/05/28 07:24:11;;;;;;;9.00;5.13;;;;;;;20.46;60.64;98662.81;5043924;28;20202;-68
2021/05/28 07:26:38;;;;;;;9.97;5.77;;;;;;;18.78;68.17;98654.66;5048576;28;20202;-68
2021/05/28 07:29:05;;;;;;;8.77;4.93;;;;;;;19.59;64.94;98664.25;5046111;28;20583;-69
2021/05/28 07:31:33;;;;;;;7.53;4.83;;;;;;;20.73;59.62;98671.88;5053318;28;20232;-68
2021/05/28 07:34:00;;;;;;;7.47;4.07;;;;;;;20.61;59.67;98671.16;5040514;28;20321;-69
2021/05/28 07:36:27;;;;;;;7.83;4.17;;;;;;;21.20;55.23;98686.69;5043780;28;20318;-68
2021/05/28 07:38:54;;;;;;;7.27;4.47;;;;;;;21.60;53.58;98677.13;5046677;28;20250;-69
2021/05/28 07:41:21;;;;;;;5.93;4.20;;;;;;;21.19;53.54;98688.59;5049737;28;20325;-72
2021/05/28 07:43:49;;;;;;;6.70;4.10;;;;;;;20.65;56.35;98680.44;5042938;28;20247;-73
2021/05/28 07:46:15;;;;;;;8.17;4.37;;;;;;;21.02;56.34;98678.84;5041163;28;20244;-73
2021/05/28 07:48:42;;;;;;;7.33;4.53;;;;;;;20.82;58.40;98663.06;5045351;28;20625;-72
2021/05/28 07:51:09;;;;;;;6.30;3.93;;;;;;;20.40;58.06;98674.63;5039329;28;20243;-69
2021/05/28 07:53:36;;;;;;;6.77;4.17;;;;;;;21.06;54.48;98679.97;5042025;28;20229;-66
2021/05/28 07:56:05;;;;;;;5.67;4.27;;;;;;;20.17;56.87;98691.88;5044690;28;20206;-69
2021/05/28 07:58:33;;;;;;;5.90;3.77;;;;;;;20.11;58.89;98687.44;5050880;28;20614;-70
2021/05/28 08:01:00;;;;;;;7.43;4.47;;;;;;;20.54;57.81;98679.47;5039960;28;20232;-69
2021/05/28 08:03:28;;;;;;;7.50;4.10;;;;;;;22.06;52.33;98687.44;5061451;28;20194;-69
2021/05/28 08:05:54;;;;;;;5.87;3.70;;;;;;;22.40;48.44;98698.88;5035111;28;20237;-69
2021/05/28 08:08:25;;;;;;;7.30;3.87;;;;;;;20.21;56.68;98684.91;5053533;28;20206;-68
2021/05/28 08:10:52;;;;;;;12.73;4.20;;;;;;;21.09;55.55;98690.34;5051084;28;20210;-71
2021/05/28 08:13:19;;;;;;;16.97;5.43;;;;;;;19.99;59.11;98686.66;5047104;28;20222;-69
2021/05/28 08:15:48;;;;;;;7.83;3.60;;;;;;;20.48;54.62;98685.06;5050833;28;20824;-69
2021/05/28 08:18:15;;;;;;;5.03;3.23;;;;;;;20.58;52.22;98682.50;5049381;28;20252;-68
2021/05/28 08:20:42;;;;;;;5.83;3.50;;;;;;;19.02;59.35;98677.91;5043596;28;20750;-68
2021/05/28 08:23:09;;;;;;;7.47;3.10;;;;;;;20.36;53.06;98687.84;5042475;28;20223;-70
2021/05/28 08:25:36;;;;;;;5.13;2.90;;;;;;;19.59;52.85;98695.91;5046304;28;20215;-67
2021/05/28 08:28:03;;;;;;;3.80;2.57;;;;;;;19.65;53.32;98701.19;5049985;28;20346;-68
2021/05/28 08:30:30;;;;;;;5.27;2.97;;;;;;;20.14;52.96;98684.25;5050318;28;20209;-68
2021/05/28 08:32:57;;;;;;;4.07;2.83;;;;;;;19.71;53.87;98694.78;5042112;28;20230;-68
2021/05/28 08:35:24;;;;;;;7.73;3.43;;;;;;;20.40;56.26;98680.03;5047748;28;20225;-68
2021/05/28 08:37:51;;;;;;;4.87;3.00;;;;;;;20.50;56.18;98674.78;5041499;28;20209;-69
2021/05/28 08:40:19;;;;;;;9.70;3.37;;;;;;;19.96;59.21;98679.00;5045694;28;20564;-68
2021/05/28 08:42:46;;;;;;;7.23;4.07;;;;;;;20.32;55.52;98675.06;5050388;28;20257;-68
2021/05/28 08:45:14;;;;;;;5.77;3.67;;;;;;;21.54;52.47;98685.47;5042122;28;20692;-68
2021/05/28 08:47:41;;;;;;;4.53;3.57;;;;;;;20.62;55.47;98678.25;5043689;28;20238;-68
2021/05/28 08:50:10;;;;;;;6.80;3.57;;;;;;;19.93;60.19;98665.97;5047086;28;20253;-67
2021/05/28 08:52:37;;;;;;;8.30;4.07;;;;;;;20.24;57.41;98659.19;5049359;28;20771;-68
2021/05/28 08:55:04;;;;;;;6.07;3.83;;;;;;;20.76;55.25;98668.66;5042683;28;20204;-68
2021/05/28 08:57:31;;;;;;;6.80;3.23;;;;;;;21.59;53.30;98674.66;5048500;28;20198;-69
2021/05/28 08:59:58;;;;;;;5.63;3.40;;;;;;;21.77;51.00;98675.16;5042658;28;20219;-70
2021/05/28 09:02:33;;;;;;;5.00;3.40;;;;;;;21.74;49.27;98685.72;5046514;28;20306;-69
2021/05/28 09:05:13;;;;;;;5.47;3.47;;;;;;;21.10;50.87;98684.66;5046056;28;20284;-69
2021/05/28 09:07:41;;;;;;;5.20;3.27;;;;;;;20.56;52.34;98679.22;5041865;28;20279;-69
2021/05/28 09:10:31;;;;;;;5.00;2.70;;;;;;;21.49;49.43;98675.34;5049815;28;20208;-69
2021/05/28 09:13:12;;;;;;;6.40;3.23;;;;;;;21.14;47.89;98693.94;5049648;28;20232;-69
2021/05/28 09:15:39;;;;;;;5.03;3.10;;;;;;;19.68;53.39;98683.63;5044438;28;20569;-68
2021/05/28 09:18:06;;;;;;;6.10;3.20;;;;;;;21.02;48.23;98687.78;5042316;28;20725;-69
2021/05/28 09:20:35;;;;;;;4.23;3.00;;;;;;;20.94;50.49;98693.69;5049989;28;20202;-69
2021/05/28 09:23:13;;;;;;;4.50;3.20;;;;;;;21.54;48.63;98691.72;5048697;28;20223;-69
2021/05/28 09:25:58;;;;;;;6.90;3.80;;;;;;;20.04;53.05;98692.16;5048385;28;20203;-69
2021/05/28 09:28:25;;;;;;;7.70;3.80;;;;;;;19.85;55.89;98681.78;5043521;28;20199;-68
2021/05/28 09:30:57;;;;;;;6.57;3.60;;;;;;;20.62;54.09;98684.47;5043234;28;20210;-67
2021/05/28 09:33:25;;;;;;;7.17;3.03;;;;;;;21.11;50.99;98693.59;5047046;28;20245;-69
2021/05/28 09:35:53;;;;;;;6.73;3.20;;;;;;;21.28;49.42;98688.97;5045954;28;20210;-69
2021/05/28 09:38:24;;;;;;;5.30;3.43;;;;;;;20.46;51.11;98695.34;5043842;28;20205;-69
2021/05/28 09:40:51;;;;;;;5.73;3.40;;;;;;;19.18;53.50;98680.72;5047859;28;20280;-68
2021/05/28 09:43:25;;;;;;;5.23;3.33;;;;;;;19.27;53.66;98687.44;5044234;28;20274;-68
2021/05/28 09:45:52;;;;;;;5.83;3.37;;;;;;;21.16;47.33;98702.66;5041977;28;20209;-69
2021/05/28 09:48:30;;;;;;;4.43;3.03;;;;;;;21.57;47.50;98698.53;5046775;28;20214;-68
2021/05/28 09:50:59;;;;;;;4.87;2.73;;;;;;;21.00;49.40;98689.94;5042170;28;20209;-69
2021/05/28 09:53:28;;;;;;;4.50;2.83;;;;;;;20.87;49.55;98686.75;5044860;28;20310;-68
2021/05/28 09:55:56;;;;;;;6.23;2.70;;;;;;;20.26;50.29;98684.97;5043849;28;20206;-68
2021/05/28 09:58:23;;;;;;;6.37;3.20;;;;;;;20.97;49.25;98686.94;5044451;28;20210;-68
2021/05/28 10:00:50;;;;;;;6.20;3.20;;;;;;;20.24;51.42;98673.56;5043270;28;20211;-68
2021/05/28 10:03:19;;;;;;;5.97;3.10;;;;;;;20.57;51.27;98684.38;5040556;28;20223;-67
2021/05/28 10:05:48;;;;;;;4.93;3.20;;;;;;;22.01;47.20;98690.09;5041280;28;20214;-68
2021/05/28 10:08:16;;;;;;;6.20;3.30;;;;;;;21.72;46.76;98696.84;5039352;28;20220;-69
2021/05/28 10:10:45;;;;;;;5.77;3.60;;;;;;;21.15;48.60;98687.44;5038516;28;20210;-68
2021/05/28 10:13:13;;;;;;;4.93;3.20;;;;;;;21.10;46.76;98692.81;5038875;28;20237;-68
2021/05/28 10:15:41;;;;;;;5.47;3.43;;;;;;;19.85;51.45;98690.72;5042258;28;20209;-68
2021/05/28 10:18:08;;;;;;;8.63;3.70;;;;;;;20.96;48.28;98693.41;5041229;28;20247;-68
2021/05/28 10:20:37;;;;;;;4.17;3.37;;;;;;;20.79;49.17;98687.16;5043889;28;20205;-67
2021/05/28 10:23:04;;;;;;;4.73;3.53;;;;;;;19.58;51.61;98672.59;5044394;28;20306;-67
2021/05/28 10:25:32;;;;;;;5.50;3.50;;;;;;;21.41;47.86;98675.81;5043179;28;20210;-69
2021/05/28 10:28:00;;;;;;;4.47;2.97;;;;;;;22.60;42.80;98688.19;5048653;28;20202;-71
2021/05/28 10:30:29;;;;;;;5.17;3.03;;;;;;;22.07;44.52;98671.91;5045134;28;20614;-69
2021/05/28 10:33:21;;;;;;;5.03;2.80;;;;;;;23.56;40.14;98684.91;5040854;28;20231;-69
2021/05/28 10:35:50;;;;;;;4.53;2.50;;;;;;;21.44;44.55;98690.78;5024840;28;20201;-69
2021/05/28 10:38:42;;;;;;;5.10;3.57;;;;;;;22.15;42.43;98691.28;5050107;28;20205;-69
2021/05/28 10:41:32;;;;;;;9.07;3.17;;;;;;;20.26;47.36;98684.97;5051540;28;20204;-69
2021/05/28 10:44:06;;;;;;;3.73;2.53;;;;;;;20.66;44.37;98684.78;5051871;28;20203;-69
2021/05/28 10:46:33;;;;;;;3.70;2.20;;;;;;;21.09;43.66;98679.47;5038656;28;20214;-69
2021/05/28 10:49:11;;;;;;;3.57;2.70;;;;;;;20.29;45.65;98672.81;5058086;28;20219;-69
2021/05/28 10:52:01;;;;;;;3.80;2.50;;;;;;;21.82;42.33;98680.66;5044572;28;20272;-69
2021/05/28 10:54:31;;;;;;;3.87;2.33;;;;;;;21.35;41.88;98679.56;5045792;28;20788;-69
2021/05/28 10:57:18;;;;;;;3.27;2.23;;;;;;;22.26;39.71;98681.34;5051867;28;20258;-69
2021/05/28 10:59:46;;;;;;;6.33;2.10;;;;;;;24.12;36.22;98687.50;5045520;28;20207;-69
2021/05/28 11:02:13;;;;;;;3.17;2.10;;;;;;;23.35;35.26;98685.94;5052458;28;20259;-69
2021/05/28 11:04:59;;;;;;;3.67;2.37;;;;;;;23.41;35.85;98680.22;5057948;28;20205;-69
2021/05/28 11:07:34;;;;;;;3.87;2.10;;;;;;;22.53;36.95;98685.69;5043079;28;20422;-69
2021/05/28 11:10:26;;;;;;;3.60;1.60;;;;;;;22.36;38.07;98676.81;5051665;28;20260;-69
2021/05/28 11:12:54;;;;;;;2.20;1.80;;;;;;;23.42;34.27;98689.22;5038222;28;20270;-69
2021/05/28 11:15:27;;;;;;;2.33;1.70;;;;;;;23.02;33.20;98699.88;5042916;28;20212;-69
2021/05/28 11:17:57;;;;;;;3.47;1.90;;;;;;;23.83;32.48;98693.72;5052795;28;20221;-70
2021/05/28 11:20:35;;;;;;;2.13;1.50;;;;;;;23.76;34.41;98687.72;5051629;28;20228;-69
2021/05/28 11:23:06;;;;;;;2.20;2.00;;;;;;;22.77;35.81;98683.38;5048069;28;20260;-68
2021/05/28 11:25:33;;;;;;;4.90;2.10;;;;;;;24.24;33.47;98679.91;5050907;28;20198;-68
2021/05/28 11:28:06;;;;;;;4.07;2.23;;;;;;;23.67;33.54;98686.59;5050324;28;20989;-69
2021/05/28 11:30:44;;;;;;;4.57;2.23;;;;;;;23.68;35.12;98683.59;5056019;28;20699;-68
2021/05/28 11:33:43;;;;;;;3.17;2.43;;;;;;;23.00;36.26;98669.38;5050201;28;20233;-68
2021/05/28 11:36:41;;;;;;;4.13;2.50;;;;;;;23.03;36.21;98672.41;5048619;28;20669;-68
2021/05/28 11:39:10;;;;;;;5.20;2.47;;;;;;;23.82;35.92;98675.72;5049104;28;20212;-68